createdAt,value
2022-09-06T00:02:18.609Z,20.60
2022-09-06T00:06:20.413Z,20.80
2022-09-06T00:10:21.530Z,20.80
2022-09-06T00:14:22.603Z,20.70
2022-09-06T00:18:23.840Z,20.80
2022-09-06T00:22:24.969Z,20.80
2022-09-06T00:26:26.068Z,20.80
2022-09-06T00:30:29.061Z,20.90
2022-09-06T00:34:30.103Z,20.90
2022-09-06T00:38:31.708Z,20.90
2022-09-06T00:42:33.220Z,20.90
2022-09-06T00:46:37.513Z,20.90
2022-09-06T00:50:38.483Z,20.80
2022-09-06T00:54:40.729Z,20.80
2022-09-06T00:58:42.474Z,20.60
2022-09-06T01:02:43.718Z,20.80
2022-09-06T01:07:06.605Z,20.80
2022-09-06T01:11:45.037Z,20.90
2022-09-06T01:15:58.484Z,20.80
2022-09-06T01:20:30.488Z,20.80
2022-09-06T01:24:41.258Z,20.30
2022-09-06T01:28:44.465Z,19.40
2022-09-06T01:32:52.536Z,19.80
2022-09-06T01:37:11.136Z,20.20
2022-09-06T01:41:06.786Z,20.70
2022-09-06T01:45:11.736Z,21.10
2022-09-06T01:49:25.680Z,21.00
2022-09-06T01:57:56.596Z,21.20
2022-09-06T02:02:22.707Z,21.20
2022-09-06T02:06:27.515Z,20.90
2022-09-06T02:10:32.614Z,17.60
2022-09-06T02:14:37.562Z,19.00
2022-09-06T02:18:45.095Z,20.00
2022-09-06T02:22:47.553Z,20.90
2022-09-06T02:26:51.064Z,20.50
2022-09-06T02:30:56.162Z,20.90
2022-09-06T02:34:57.975Z,21.60
2022-09-06T02:39:00.939Z,21.70
2022-09-06T02:43:01.846Z,21.90
2022-09-06T02:47:06.121Z,22.30
2022-09-06T02:51:08.761Z,22.60
2022-09-06T02:55:11.093Z,22.90
2022-09-06T02:59:12.350Z,22.30
2022-09-06T03:03:13.806Z,22.00
2022-09-06T03:07:14.837Z,22.20
2022-09-06T03:11:16.178Z,22.60
2022-09-06T03:15:17.524Z,22.50
2022-09-06T03:19:19.733Z,21.40
2022-09-06T03:23:23.316Z,22.20
2022-09-06T03:27:24.481Z,22.70
2022-09-06T03:31:25.463Z,22.50
2022-09-06T03:35:26.614Z,23.10
2022-09-06T03:39:27.773Z,22.40
2022-09-06T03:43:29.788Z,22.00
2022-09-06T03:47:31.075Z,21.10
2022-09-06T03:51:32.098Z,19.80
2022-09-06T03:55:33.039Z,20.00
2022-09-06T03:59:34.017Z,19.20
2022-09-06T04:03:36.279Z,19.50
2022-09-06T04:07:37.310Z,21.00
2022-09-06T04:11:38.484Z,22.10
2022-09-06T04:15:39.832Z,20.90
2022-09-06T04:19:40.885Z,20.40
2022-09-06T04:23:42.078Z,22.40
2022-09-06T04:27:43.257Z,22.50
2022-09-06T04:31:45.639Z,22.80
2022-09-06T04:35:49.998Z,21.80
2022-09-06T04:39:51.046Z,21.90
2022-09-06T04:43:52.014Z,21.30
2022-09-06T04:47:52.930Z,21.30
2022-09-06T04:51:53.980Z,21.80
2022-09-06T04:55:57.541Z,21.60
2022-09-06T04:59:58.548Z,22.00
2022-09-06T05:03:59.574Z,22.40
2022-09-06T05:12:08.056Z,22.00
2022-09-06T05:16:09.690Z,21.60
2022-09-06T05:20:11.756Z,21.90
2022-09-06T05:24:13.124Z,19.70
2022-09-06T05:28:15.242Z,20.90
2022-09-06T05:32:16.364Z,21.60
2022-09-06T05:36:17.376Z,21.60
2022-09-06T05:40:18.414Z,20.20
2022-09-06T05:44:19.556Z,20.90
2022-09-06T05:48:20.482Z,19.70
2022-09-06T05:52:21.398Z,19.80
2022-09-06T05:56:22.530Z,21.40
2022-09-06T06:00:24.766Z,22.30
2022-09-06T06:04:25.722Z,22.70
2022-09-06T06:08:27.039Z,23.00
2022-09-06T06:12:28.161Z,23.30
2022-09-06T06:16:29.888Z,23.40
2022-09-06T06:20:31.010Z,23.90
2022-09-06T06:24:32.044Z,24.00
2022-09-06T06:28:35.125Z,24.10
2022-09-06T06:32:36.110Z,24.30
2022-09-06T06:36:37.757Z,24.40
2022-09-06T06:40:38.821Z,24.40
2022-09-06T06:44:39.831Z,24.60
2022-09-06T06:48:43.006Z,24.70
2022-09-06T06:52:44.017Z,25.20
2022-09-06T06:56:45.231Z,25.50
2022-09-06T07:00:46.489Z,25.30
2022-09-06T07:04:47.531Z,24.00
2022-09-06T07:08:48.976Z,24.40
2022-09-06T07:12:50.531Z,25.20
2022-09-06T07:16:53.447Z,26.00
2022-09-06T07:24:59.195Z,26.50
2022-09-06T07:29:01.972Z,26.60
2022-09-06T07:33:06.931Z,26.90
2022-09-06T07:37:08.026Z,27.00
2022-09-06T07:41:11.030Z,27.00
2022-09-06T07:45:12.148Z,27.30
2022-09-06T07:49:13.275Z,27.10
2022-09-06T07:53:29.067Z,27.20
2022-09-06T07:57:17.062Z,27.00
2022-09-06T08:01:30.590Z,26.10
2022-09-06T08:09:35.115Z,26.90
2022-09-06T08:13:37.038Z,26.90
2022-09-06T08:17:38.050Z,27.70
2022-09-06T08:21:38.962Z,27.10
2022-09-06T08:25:40.012Z,27.30
2022-09-06T08:29:41.064Z,26.90
2022-09-06T08:33:43.427Z,27.50
2022-09-06T08:37:44.435Z,27.30
2022-09-06T08:41:52.509Z,27.20
2022-09-06T08:45:56.502Z,27.00
2022-09-06T08:50:03.508Z,26.50
2022-09-06T08:54:26.850Z,27.20
2022-09-06T08:58:49.879Z,27.00
2022-09-06T09:03:00.769Z,27.00
2022-09-06T09:07:17.896Z,27.50
2022-09-06T09:11:24.877Z,27.50
2022-09-06T09:15:27.217Z,27.60
2022-09-06T09:19:30.058Z,28.20
2022-09-06T09:23:31.639Z,28.20
2022-09-06T09:27:33.288Z,28.00
2022-09-06T09:31:43.913Z,27.50
2022-09-06T09:35:45.067Z,28.20
2022-09-06T09:39:47.862Z,28.20
2022-09-06T09:44:04.384Z,27.90
2022-09-06T09:48:26.940Z,28.20
2022-09-06T09:52:31.142Z,28.10
2022-09-06T09:56:38.994Z,28.70
2022-09-06T10:00:42.243Z,29.40
2022-09-06T10:04:47.074Z,28.40
2022-09-06T10:08:48.059Z,28.40
2022-09-06T10:13:09.721Z,27.80
2022-09-06T10:17:30.163Z,28.60
2022-09-06T10:21:31.257Z,29.20
2022-09-06T10:25:36.890Z,28.40
2022-09-06T10:30:07.766Z,29.00
2022-09-06T10:34:29.441Z,28.70
2022-09-06T10:38:51.009Z,29.60
2022-09-06T10:42:54.041Z,30.20
2022-09-06T10:47:11.112Z,30.70
2022-09-06T10:51:40.005Z,30.10
2022-09-06T10:55:46.269Z,31.10
2022-09-06T10:59:53.078Z,30.40
2022-09-06T11:04:01.917Z,30.70
2022-09-06T11:12:34.361Z,31.10
2022-09-06T11:16:44.989Z,31.40
2022-09-06T11:21:06.329Z,30.20
2022-09-06T11:25:27.871Z,30.70
2022-09-06T11:29:31.080Z,30.90
2022-09-06T11:33:38.175Z,30.90
2022-09-06T11:37:43.173Z,31.50
2022-09-06T11:41:44.304Z,31.40
2022-09-06T11:45:51.043Z,30.60
2022-09-06T11:49:53.430Z,31.30
2022-09-06T11:54:04.116Z,32.30
2022-09-06T11:58:24.324Z,32.40
2022-09-06T12:02:38.140Z,32.80
2022-09-06T12:06:43.029Z,32.30
2022-09-06T12:10:56.172Z,32.50
2022-09-06T12:14:57.304Z,33.40
2022-09-06T12:18:59.779Z,33.10
2022-09-06T12:23:01.101Z,32.60
2022-09-06T12:27:26.570Z,32.50
2022-09-06T12:31:34.616Z,32.70
2022-09-06T12:39:39.022Z,32.50
2022-09-06T12:43:40.631Z,34.40
2022-09-06T12:47:41.610Z,33.50
2022-09-06T12:51:43.225Z,31.80
2022-09-06T12:55:44.216Z,32.30
2022-09-06T12:59:54.818Z,31.20
2022-09-06T13:04:01.739Z,33.40
2022-09-06T13:08:03.646Z,35.40
2022-09-06T13:12:08.738Z,35.10
2022-09-06T13:16:10.043Z,34.90
2022-09-06T13:20:26.059Z,35.40
2022-09-06T13:24:33.927Z,36.20
2022-09-06T13:28:35.443Z,35.80
2022-09-06T13:32:43.769Z,33.10
2022-09-06T13:36:48.594Z,33.70
2022-09-06T13:41:11.636Z,33.90
2022-09-06T13:44:57.686Z,32.30
2022-09-06T13:48:57.867Z,31.40
2022-09-06T13:52:59.254Z,30.50
2022-09-06T13:57:02.470Z,30.60
2022-09-06T14:01:07.060Z,31.60
2022-09-06T14:05:09.002Z,31.50
2022-09-06T14:09:10.291Z,31.00
2022-09-06T14:13:11.768Z,31.00
2022-09-06T14:17:12.828Z,32.10
2022-09-06T14:21:14.072Z,30.90
2022-09-06T14:25:15.113Z,31.20
2022-09-06T14:29:16.118Z,31.40
2022-09-06T14:33:18.368Z,30.80
2022-09-06T14:37:20.991Z,31.10
2022-09-06T14:41:22.028Z,31.40
2022-09-06T14:45:23.105Z,31.50
2022-09-06T14:49:24.552Z,31.40
2022-09-06T14:53:39.808Z,31.90
2022-09-06T14:57:29.516Z,31.80
2022-09-06T15:01:37.791Z,31.90
2022-09-06T15:05:35.571Z,32.10
2022-09-06T15:09:36.998Z,32.10
2022-09-06T15:13:40.116Z,32.40
2022-09-06T15:17:41.547Z,32.80
2022-09-06T15:21:42.995Z,33.00
2022-09-06T15:25:49.198Z,32.70
2022-09-06T15:29:50.307Z,31.90
2022-09-06T15:33:52.356Z,31.40
2022-09-06T15:37:53.785Z,30.00
2022-09-06T15:41:56.571Z,28.20
2022-09-06T15:45:57.709Z,27.60
2022-09-06T15:49:58.772Z,28.60
2022-09-06T15:53:59.927Z,28.80
2022-09-06T15:58:00.978Z,29.50
2022-09-06T16:02:02.606Z,29.20
2022-09-06T16:06:27.194Z,28.40
2022-09-06T16:10:14.105Z,27.50
2022-09-06T16:14:15.947Z,27.60
2022-09-06T16:18:18.871Z,27.70
2022-09-06T16:22:19.916Z,28.50
2022-09-06T16:26:22.674Z,28.40
2022-09-06T16:30:23.893Z,27.90
2022-09-06T16:34:26.367Z,26.40
2022-09-06T16:38:30.695Z,25.10
2022-09-06T16:42:31.749Z,25.10
2022-09-06T16:46:32.843Z,25.90
2022-09-06T16:50:34.014Z,24.90
2022-09-06T16:54:36.562Z,24.50
2022-09-06T16:58:41.401Z,22.90
2022-09-06T17:02:47.016Z,22.60
2022-09-06T17:06:46.315Z,22.00
2022-09-06T17:10:47.911Z,22.50
2022-09-06T17:14:49.050Z,23.10
2022-09-06T17:18:52.978Z,22.90
2022-09-06T17:22:54.024Z,22.10
2022-09-06T17:26:55.191Z,21.90
2022-09-06T17:30:59.763Z,22.00
2022-09-06T17:35:01.457Z,22.00
2022-09-06T17:39:13.206Z,21.10
2022-09-06T17:43:14.576Z,20.90
2022-09-06T17:47:15.999Z,21.00
2022-09-06T17:51:17.854Z,21.20
2022-09-06T17:55:19.215Z,21.70
2022-09-06T17:59:20.513Z,21.90
2022-09-06T18:03:21.540Z,21.50
2022-09-06T18:07:22.640Z,22.10
2022-09-06T18:11:26.863Z,21.90
2022-09-06T18:15:28.385Z,21.80
2022-09-06T18:19:29.863Z,22.10
2022-09-06T18:23:31.624Z,21.70
2022-09-06T18:27:33.172Z,22.20
2022-09-06T18:31:34.274Z,22.40
2022-09-06T18:35:39.205Z,22.80
2022-09-06T18:39:41.723Z,22.90
2022-09-06T18:43:43.263Z,22.40
2022-09-06T18:47:44.345Z,22.30
2022-09-06T18:51:45.911Z,23.20
2022-09-06T18:55:51.547Z,23.60
2022-09-06T18:59:52.580Z,23.80
2022-09-06T19:03:55.988Z,23.70
2022-09-06T19:07:57.200Z,24.10
2022-09-06T19:11:58.597Z,22.70
2022-09-06T19:16:00.809Z,22.90
2022-09-06T19:20:03.607Z,23.60
2022-09-06T19:24:06.935Z,22.70
2022-09-06T19:28:08.171Z,23.60
2022-09-06T19:32:09.453Z,23.50
2022-09-06T19:36:12.391Z,24.10
2022-09-06T19:40:13.880Z,23.50
2022-09-06T19:44:16.438Z,22.10
2022-09-06T19:48:17.606Z,21.10
2022-09-06T19:52:18.920Z,20.70
2022-09-06T19:56:25.865Z,21.70
2022-09-06T20:00:28.401Z,22.20
2022-09-06T20:04:31.769Z,22.90
2022-09-06T20:08:34.396Z,22.80
2022-09-06T20:12:36.223Z,23.10
2022-09-06T20:16:41.436Z,23.10
2022-09-06T20:20:40.698Z,22.90
2022-09-06T20:24:41.961Z,22.90
2022-09-06T20:28:43.628Z,22.70
2022-09-06T20:32:44.836Z,22.60
2022-09-06T20:36:45.848Z,22.60
2022-09-06T20:40:46.795Z,22.40
2022-09-06T20:44:48.267Z,22.40
2022-09-06T20:48:50.043Z,22.30
2022-09-06T20:52:52.564Z,22.10
2022-09-06T20:56:54.778Z,22.30
2022-09-06T21:00:56.422Z,22.20
2022-09-06T21:04:59.410Z,22.20
2022-09-06T21:09:02.304Z,22.00
2022-09-06T21:13:03.532Z,22.00
2022-09-06T21:17:04.571Z,22.00
2022-09-06T21:21:07.588Z,21.90
2022-09-06T21:25:09.235Z,21.90
2022-09-06T21:29:11.021Z,21.80
2022-09-06T21:33:12.153Z,21.70
2022-09-06T21:37:13.844Z,21.90
2022-09-06T21:41:17.674Z,21.30
2022-09-06T21:45:18.933Z,21.70
2022-09-06T21:49:20.062Z,21.50
2022-09-06T21:53:22.943Z,21.40
2022-09-06T21:57:24.145Z,21.40
2022-09-06T22:01:27.917Z,21.50
2022-09-06T22:05:29.118Z,21.10
2022-09-06T22:09:30.264Z,20.70
2022-09-06T22:13:31.359Z,21.30
2022-09-06T22:17:32.443Z,21.70
2022-09-06T22:21:34.079Z,21.40
2022-09-06T22:25:35.102Z,21.40
2022-09-06T22:29:36.249Z,21.80
2022-09-06T22:33:37.872Z,21.60
2022-09-06T22:37:38.930Z,21.40
2022-09-06T22:41:40.046Z,21.20
2022-09-06T22:45:43.022Z,21.30
2022-09-06T22:49:44.017Z,21.30
2022-09-06T22:53:45.125Z,21.20
2022-09-06T22:57:46.354Z,20.80
2022-09-06T23:01:47.404Z,20.90
2022-09-06T23:05:48.954Z,20.40
2022-09-06T23:09:50.169Z,20.70
2022-09-06T23:13:57.139Z,21.30
2022-09-06T23:17:58.090Z,21.40
2022-09-06T23:21:59.119Z,21.40
2022-09-06T23:26:10.085Z,21.30
2022-09-06T23:30:11.511Z,21.30
2022-09-06T23:34:12.759Z,21.20
2022-09-06T23:38:13.807Z,21.40
2022-09-06T23:42:14.873Z,21.50
2022-09-06T23:46:16.408Z,21.40
2022-09-06T23:50:17.459Z,20.80
2022-09-06T23:54:19.004Z,20.70
2022-09-06T23:58:20.229Z,20.70
